Time;durP1;ratioP1;P1;durP2;ratioP2;P2;SDS_P1;SDS_P2;PMS_P1;PMS_P2;Temp;Humidity;BMP_temperature;BMP_pressure;BME280_temperature;BME280_humidity;BME280_pressure;Samples;Min_cycle;Max_cycle;Signal;HPM_P1;HPM_P2
2022/07/25 00:00:19;;;;;;;12.25;8.50;;;19.90;99.90;;;;;;5019549;28;20065;-89
2022/07/25 00:02:45;;;;;;;11.45;8.82;;;19.90;99.90;;;;;;5030743;28;20030;-89
2022/07/25 00:05:11;;;;;;;13.55;9.00;;;19.90;99.90;;;;;;5030047;28;20030;-89
2022/07/25 00:07:37;;;;;;;11.63;8.23;;;19.90;99.90;;;;;;5013029;28;20045;-88
2022/07/25 00:10:03;;;;;;;13.43;8.30;;;19.90;99.90;;;;;;5013500;28;20037;-88
2022/07/25 00:12:29;;;;;;;10.75;7.63;;;20.00;99.90;;;;;;5012853;28;20094;-88
2022/07/25 00:14:59;;;;;;;11.80;7.78;;;20.00;99.90;;;;;;5013580;28;20076;-89
2022/07/25 00:17:24;;;;;;;13.25;8.07;;;20.00;99.90;;;;;;5012232;28;20038;-89
2022/07/25 00:19:50;;;;;;;9.93;8.25;;;20.00;99.90;;;;;;5011884;28;20061;-89
2022/07/25 00:22:16;;;;;;;11.10;8.48;;;20.00;99.90;;;;;;5012205;28;20068;-90
2022/07/25 00:24:42;;;;;;;9.50;8.30;;;20.00;99.90;;;;;;5011406;28;20430;-88
2022/07/25 00:27:08;;;;;;;8.80;7.53;;;20.10;99.90;;;;;;5029885;28;20030;-90
2022/07/25 00:29:36;;;;;;;10.23;8.65;;;20.10;99.90;;;;;;5028897;28;20065;-89
2022/07/25 00:32:03;;;;;;;10.35;8.30;;;20.10;99.90;;;;;;5012047;28;20429;-90
2022/07/25 00:34:29;;;;;;;14.07;8.90;;;20.10;99.90;;;;;;5013140;28;20029;-89
2022/07/25 00:36:55;;;;;;;11.43;8.30;;;20.10;99.90;;;;;;5013004;28;20040;-89
2022/07/25 00:39:20;;;;;;;10.70;8.82;;;20.10;99.90;;;;;;5012380;28;20030;-89
2022/07/25 00:41:46;;;;;;;12.90;8.77;;;20.00;99.90;;;;;;5012703;28;20065;-88
2022/07/25 00:44:26;;;;;;;11.68;8.70;;;20.10;99.90;;;;;;5013782;28;20042;-89
2022/07/25 00:46:53;;;;;;;14.05;8.63;;;20.20;99.90;;;;;;5014544;28;20057;-89
2022/07/25 00:49:19;;;;;;;8.82;7.53;;;20.20;99.90;;;;;;5013934;28;20033;-89
2022/07/25 00:51:48;;;;;;;15.77;9.02;;;20.20;99.90;;;;;;5014875;28;20032;-90
2022/07/25 00:54:18;;;;;;;11.77;9.30;;;20.20;99.90;;;;;;5013967;28;20042;-89
2022/07/25 00:56:45;;;;;;;11.90;8.95;;;20.20;99.90;;;;;;5015065;28;20124;-88
2022/07/25 00:59:11;;;;;;;11.57;9.10;;;20.20;99.90;;;;;;5014016;28;20038;-88
2022/07/25 01:01:38;;;;;;;14.07;9.23;;;20.20;99.90;;;;;;5014748;28;20048;-89
2022/07/25 01:04:12;;;;;;;10.48;8.57;;;20.20;99.90;;;;;;5014084;28;20025;-89
2022/07/25 01:06:38;;;;;;;11.25;9.68;;;20.30;99.90;;;;;;5014652;28;20498;-89
2022/07/25 01:09:03;;;;;;;12.40;9.63;;;20.40;99.90;;;;;;5014656;28;20022;-89
2022/07/25 01:11:29;;;;;;;13.07;9.05;;;20.50;99.90;;;;;;5014445;28;20037;-88
2022/07/25 01:13:55;;;;;;;13.43;8.70;;;20.50;99.90;;;;;;5014080;28;20792;-89
2022/07/25 01:16:21;;;;;;;12.05;9.43;;;20.40;99.90;;;;;;5013902;28;20038;-89
2022/07/25 01:18:52;;;;;;;11.65;9.27;;;20.50;99.90;;;;;;5015131;28;20037;-89
2022/07/25 01:21:17;;;;;;;11.75;9.40;;;20.40;99.90;;;;;;5014377;28;20048;-89
2022/07/25 01:23:43;;;;;;;13.95;9.10;;;20.40;99.90;;;;;;5013110;28;20038;-89
2022/07/25 01:26:09;;;;;;;18.65;11.02;;;20.40;99.90;;;;;;5013952;28;20026;-89
2022/07/25 01:28:35;;;;;;;13.05;9.55;;;20.40;99.90;;;;;;4999140;28;20129;-89
2022/07/25 01:31:01;;;;;;;12.18;9.57;;;20.40;99.90;;;;;;5016759;28;20083;-89
2022/07/25 01:33:34;;;;;;;16.80;9.50;;;20.40;99.90;;;;;;5014241;28;20054;-88
2022/07/25 01:36:00;;;;;;;12.77;9.45;;;20.30;99.90;;;;;;5013566;28;20064;-90
2022/07/25 01:38:26;;;;;;;11.73;9.52;;;20.40;99.90;;;;;;5014258;28;20064;-88
2022/07/25 01:40:52;;;;;;;15.80;9.60;;;20.40;99.90;;;;;;5013918;28;20034;-88
2022/07/25 01:43:18;;;;;;;14.45;9.98;;;20.40;99.90;;;;;;5013627;28;20084;-88
2022/07/25 01:45:49;;;;;;;12.38;10.32;;;20.40;99.90;;;;;;5013775;28;20407;-89
2022/07/25 01:48:15;;;;;;;14.23;10.10;;;20.40;99.90;;;;;;4998079;28;20479;-89
2022/07/25 01:50:40;;;;;;;11.15;9.48;;;20.50;99.90;;;;;;4997940;28;20112;-88
2022/07/25 01:53:06;;;;;;;11.70;9.70;;;20.50;99.90;;;;;;5029178;28;20156;-89
2022/07/25 01:55:32;;;;;;;12.82;10.82;;;20.50;99.90;;;;;;5014030;28;20129;-89
2022/07/25 01:57:58;;;;;;;12.70;10.23;;;20.50;99.90;;;;;;4997846;28;20040;-89
2022/07/25 02:00:29;;;;;;;17.95;10.07;;;20.60;99.90;;;;;;5014213;28;20103;-87
2022/07/25 02:05:42;;;;;;;12.05;10.10;;;20.60;99.90;;;;;;5014948;28;19909;-89
2022/07/25 02:08:11;;;;;;;14.00;10.73;;;20.60;99.90;;;;;;4998113;28;20117;-88
2022/07/25 02:10:37;;;;;;;12.70;10.23;;;20.60;99.90;;;;;;4997611;28;20115;-89
2022/07/25 02:13:03;;;;;;;12.68;10.70;;;20.60;99.90;;;;;;5014578;28;20493;-88
2022/07/25 02:15:29;;;;;;;12.95;10.57;;;20.60;99.90;;;;;;4997185;28;20037;-88
2022/07/25 02:18:05;;;;;;;18.20;11.90;;;20.60;99.90;;;;;;5015987;28;20041;-89
2022/07/25 02:20:30;;;;;;;12.35;10.13;;;20.60;99.90;;;;;;5013898;28;20030;-88
2022/07/25 02:22:56;;;;;;;13.43;10.93;;;20.60;99.90;;;;;;5013057;28;20121;-88
2022/07/25 02:25:22;;;;;;;15.05;11.80;;;20.60;99.90;;;;;;5012982;28;20052;-89
2022/07/25 02:27:48;;;;;;;15.15;9.82;;;20.50;99.90;;;;;;4997448;28;20417;-89
2022/07/25 02:30:18;;;;;;;14.15;10.27;;;20.50;99.90;;;;;;5013464;28;20030;-89
2022/07/25 02:32:44;;;;;;;14.52;10.88;;;20.50;99.90;;;;;;4996589;28;20045;-89
2022/07/25 02:35:10;;;;;;;14.40;10.57;;;20.60;99.90;;;;;;4997078;28;20033;-88
2022/07/25 02:37:36;;;;;;;13.95;10.60;;;20.60;99.90;;;;;;4997556;28;20046;-89
2022/07/25 02:40:03;;;;;;;13.18;10.65;;;20.70;99.90;;;;;;4997479;28;20122;-89
2022/07/25 02:42:29;;;;;;;13.40;10.85;;;20.60;99.90;;;;;;4997987;28;20057;-89
2022/07/25 02:45:03;;;;;;;13.20;10.50;;;20.70;99.90;;;;;;5022328;28;20054;-90
2022/07/25 02:47:28;;;;;;;15.23;11.68;;;20.70;99.90;;;;;;5027724;28;20034;-88
2022/07/25 02:49:54;;;;;;;14.48;11.45;;;20.70;99.90;;;;;;5013308;28;20096;-89
2022/07/25 02:52:20;;;;;;;18.58;10.88;;;20.60;99.90;;;;;;4998399;28;20068;-88
2022/07/25 02:54:46;;;;;;;16.30;11.35;;;20.60;99.90;;;;;;4996866;28;20069;-89
2022/07/25 02:57:19;;;;;;;14.52;11.63;;;20.60;99.90;;;;;;4997409;28;20506;-88
2022/07/25 02:59:45;;;;;;;14.68;10.43;;;20.60;99.90;;;;;;4999884;28;20105;-88
2022/07/25 03:02:11;;;;;;;14.95;11.02;;;20.60;99.90;;;;;;4997882;28;20060;-88
2022/07/25 03:04:37;;;;;;;12.60;9.93;;;20.40;99.90;;;;;;5015154;28;20172;-87
2022/07/25 03:07:03;;;;;;;17.50;11.15;;;20.40;99.90;;;;;;5017141;28;20486;-88
2022/07/25 03:09:38;;;;;;;18.30;10.93;;;20.40;99.90;;;;;;4997420;28;20141;-87
2022/07/25 03:12:04;;;;;;;14.48;10.50;;;20.30;99.90;;;;;;4996912;28;20057;-87
2022/07/25 03:14:30;;;;;;;16.45;11.52;;;20.40;99.90;;;;;;5013597;28;20527;-88
2022/07/25 03:16:56;;;;;;;13.32;10.75;;;20.40;99.90;;;;;;4997554;28;20034;-88
2022/07/25 03:19:21;;;;;;;15.25;10.75;;;20.30;99.90;;;;;;4998173;28;20057;-89
2022/07/25 03:21:52;;;;;;;17.25;11.95;;;20.20;99.90;;;;;;4996763;28;20124;-87
2022/07/25 03:24:18;;;;;;;21.23;12.45;;;20.10;99.90;;;;;;4986597;28;20042;-88
2022/07/25 03:26:44;;;;;;;16.95;12.02;;;19.90;99.90;;;;;;4982993;28;20056;-88
2022/07/25 03:29:10;;;;;;;13.30;10.98;;;19.90;99.90;;;;;;4980703;28;20042;-88
2022/07/25 03:31:36;;;;;;;16.73;12.07;;;19.80;99.90;;;;;;4981264;28;20051;-88
2022/07/25 03:34:02;;;;;;;17.25;11.70;;;19.80;99.90;;;;;;4979419;28;20045;-87
2022/07/25 03:36:35;;;;;;;15.93;11.30;;;19.80;99.90;;;;;;4996579;28;20458;-88
2022/07/25 03:39:01;;;;;;;18.13;12.25;;;19.80;99.90;;;;;;4996373;28;20035;-87
2022/07/25 03:41:27;;;;;;;17.17;11.52;;;19.80;99.90;;;;;;4981599;28;20037;-86
2022/07/25 03:43:52;;;;;;;15.73;10.57;;;19.80;99.90;;;;;;4980342;28;20078;-88
2022/07/25 03:46:18;;;;;;;18.38;11.25;;;19.70;99.90;;;;;;4999397;28;20034;-89
2022/07/25 03:48:53;;;;;;;16.02;11.93;;;19.70;99.90;;;;;;5013475;28;20026;-88
2022/07/25 03:51:19;;;;;;;18.08;11.50;;;19.80;99.90;;;;;;4979246;28;20502;-87
2022/07/25 03:56:43;;;;;;;18.45;11.80;;;19.80;99.90;;;;;;4991515;28;20049;-88
2022/07/25 03:59:11;;;;;;;15.93;11.93;;;19.60;99.90;;;;;;4975808;28;20093;-87
2022/07/25 04:01:37;;;;;;;17.67;11.55;;;19.50;99.90;;;;;;4993869;28;20782;-88
2022/07/25 04:04:05;;;;;;;13.95;11.52;;;19.40;99.90;;;;;;4977019;28;20492;-88
2022/07/25 04:06:32;;;;;;;15.30;11.57;;;19.40;99.90;;;;;;4977382;28;20471;-87
2022/07/25 04:08:58;;;;;;;15.35;11.55;;;19.50;99.90;;;;;;4981970;28;20030;-88
2022/07/25 04:11:24;;;;;;;14.25;11.38;;;19.50;99.90;;;;;;4988700;28;20077;-86
2022/07/25 04:13:50;;;;;;;13.73;10.95;;;19.50;99.90;;;;;;4980362;28;20038;-87
2022/07/25 04:16:26;;;;;;;16.48;11.43;;;19.50;99.90;;;;;;5013928;28;20391;-87
2022/07/25 04:18:51;;;;;;;18.73;11.75;;;19.50;99.90;;;;;;4985794;28;20145;-87
2022/07/25 04:21:17;;;;;;;16.42;11.38;;;19.50;99.90;;;;;;4983585;28;20351;-88
2022/07/25 04:23:43;;;;;;;15.23;11.13;;;19.50;99.90;;;;;;4982503;28;20038;-88
2022/07/25 04:26:09;;;;;;;14.07;11.75;;;19.60;99.90;;;;;;4982445;28;20031;-87
2022/07/25 04:28:34;;;;;;;15.25;11.52;;;19.70;99.90;;;;;;4981361;28;20034;-87
2022/07/25 04:31:09;;;;;;;14.93;11.90;;;19.80;99.90;;;;;;4981836;28;20109;-87
2022/07/25 04:33:36;;;;;;;18.42;12.52;;;19.90;99.90;;;;;;5012583;28;20073;-87
2022/07/25 04:36:05;;;;;;;16.08;11.63;;;20.00;99.90;;;;;;4981132;28;20042;-87
2022/07/25 04:38:32;;;;;;;15.43;11.25;;;19.90;99.90;;;;;;4981447;28;20096;-87
2022/07/25 04:41:08;;;;;;;14.05;10.80;;;19.90;99.90;;;;;;5019583;28;20062;-88
2022/07/25 04:43:34;;;;;;;15.07;11.70;;;19.90;99.90;;;;;;5015328;28;20045;-87
2022/07/25 04:46:00;;;;;;;15.23;11.32;;;19.90;99.90;;;;;;5000163;28;20398;-88
2022/07/25 04:48:26;;;;;;;16.77;11.57;;;20.00;99.90;;;;;;5019647;28;20022;-88
2022/07/25 04:51:01;;;;;;;17.80;11.30;;;20.10;99.90;;;;;;4999288;28;20022;-88
2022/07/25 04:53:27;;;;;;;14.23;11.13;;;20.10;99.90;;;;;;5000025;28;20069;-88
2022/07/25 04:55:53;;;;;;;17.75;10.93;;;20.20;99.90;;;;;;5001899;28;20084;-88
2022/07/25 04:58:19;;;;;;;16.15;11.65;;;20.30;99.90;;;;;;5000590;28;20520;-87
2022/07/25 05:00:45;;;;;;;16.85;11.48;;;20.30;99.90;;;;;;5017186;28;20030;-87
2022/07/25 05:03:11;;;;;;;21.27;11.85;;;20.30;99.90;;;;;;5016631;28;20402;-87
2022/07/25 05:05:39;;;;;;;13.02;11.63;;;20.40;99.90;;;;;;5017192;28;20030;-87
2022/07/25 05:08:05;;;;;;;16.23;11.32;;;20.40;99.90;;;;;;5001657;28;20061;-87
2022/07/25 05:10:31;;;;;;;16.42;11.73;;;20.40;99.90;;;;;;5000604;28;20029;-88
2022/07/25 05:12:57;;;;;;;16.38;11.93;;;20.60;99.90;;;;;;5000819;28;20407;-88
2022/07/25 05:15:23;;;;;;;16.85;12.20;;;20.70;99.90;;;;;;5002753;28;20486;-88
2022/07/25 05:17:57;;;;;;;12.02;10.75;;;20.80;99.90;;;;;;5000088;28;20066;-88
2022/07/25 05:20:22;;;;;;;17.98;12.15;;;21.00;99.90;;;;;;5001472;28;20025;-88
2022/07/25 05:22:48;;;;;;;15.00;11.80;;;21.10;99.90;;;;;;5001645;28;20044;-87
2022/07/25 05:25:14;;;;;;;17.77;12.30;;;21.20;99.90;;;;;;5000788;28;20029;-87
2022/07/25 05:27:40;;;;;;;15.05;12.18;;;21.30;99.90;;;;;;5011669;28;20034;-88
2022/07/25 05:30:16;;;;;;;15.82;13.13;;;21.30;99.90;;;;;;5036085;28;20049;-88
2022/07/25 05:32:42;;;;;;;15.48;13.15;;;21.40;99.90;;;;;;5034873;28;20064;-87
2022/07/25 05:35:08;;;;;;;18.00;12.25;;;21.50;99.90;;;;;;5002920;28;20034;-88
2022/07/25 05:37:35;;;;;;;15.27;11.80;;;21.60;99.90;;;;;;5017635;28;20037;-87
2022/07/25 05:40:01;;;;;;;16.65;11.95;;;21.70;99.90;;;;;;5002727;28;20390;-87
2022/07/25 05:42:35;;;;;;;14.57;11.35;;;21.80;99.90;;;;;;5002393;28;20034;-87
2022/07/25 05:45:01;;;;;;;15.48;11.85;;;21.80;99.90;;;;;;5002139;28;20065;-87
2022/07/25 05:47:27;;;;;;;13.93;11.68;;;21.90;99.90;;;;;;5001875;28;20057;-88
2022/07/25 05:49:53;;;;;;;13.18;10.77;;;21.90;99.90;;;;;;5031684;28;20593;-87
2022/07/25 05:52:19;;;;;;;17.27;11.70;;;21.90;99.90;;;;;;5000764;28;20069;-87
2022/07/25 05:54:50;;;;;;;15.30;12.57;;;22.00;99.90;;;;;;5000695;28;20049;-87
2022/07/25 05:57:16;;;;;;;18.85;11.93;;;22.10;99.90;;;;;;5002705;28;20128;-87
2022/07/25 05:59:42;;;;;;;14.35;10.68;;;22.10;99.90;;;;;;5020776;28;20061;-88
2022/07/25 06:02:08;;;;;;;15.52;10.98;;;22.20;99.90;;;;;;5004287;28;20054;-87
2022/07/25 06:04:33;;;;;;;15.95;11.70;;;22.30;99.90;;;;;;5001131;28;20105;-88
2022/07/25 06:06:59;;;;;;;15.05;11.88;;;22.30;99.90;;;;;;5009904;28;20121;-87
2022/07/25 06:09:29;;;;;;;15.20;11.70;;;22.30;99.90;;;;;;4993898;28;20026;-87
2022/07/25 06:11:55;;;;;;;14.73;11.25;;;22.50;99.90;;;;;;4984198;28;20037;-88
2022/07/25 06:14:20;;;;;;;17.67;12.27;;;22.50;99.90;;;;;;4986099;28;20034;-89
2022/07/25 06:16:46;;;;;;;15.52;11.55;;;22.60;99.90;;;;;;4983848;28;20032;-87
2022/07/25 06:19:12;;;;;;;12.18;10.88;;;22.60;99.90;;;;;;5028453;28;20011;-90
2022/07/25 06:21:38;;;;;;;14.23;11.65;;;22.70;99.90;;;;;;5017506;28;20511;-88
2022/07/25 06:24:08;;;;;;;14.52;11.38;;;22.70;99.90;;;;;;5006479;28;20042;-87
2022/07/25 06:26:33;;;;;;;13.57;11.48;;;22.80;99.90;;;;;;5005864;28;20041;-87
2022/07/25 06:28:59;;;;;;;15.55;11.75;;;22.80;99.90;;;;;;4989498;28;20019;-88
2022/07/25 06:31:25;;;;;;;14.23;11.38;;;22.80;99.90;;;;;;4985919;28;20027;-88
2022/07/25 06:33:50;;;;;;;17.23;11.73;;;22.90;99.90;;;;;;5009879;28;20033;-87
2022/07/25 06:36:17;;;;;;;17.83;12.13;;;23.00;99.90;;;;;;4988796;28;20064;-89
2022/07/25 06:38:50;;;;;;;17.38;12.30;;;23.00;99.90;;;;;;5004243;28;20040;-88
2022/07/25 06:41:15;;;;;;;12.60;11.27;;;23.00;99.90;;;;;;4987989;28;20037;-87
2022/07/25 06:43:41;;;;;;;19.45;12.10;;;23.10;99.90;;;;;;5003398;28;20034;-89
2022/07/25 06:46:07;;;;;;;17.70;11.13;;;23.20;99.90;;;;;;5000479;28;20036;-87
2022/07/25 06:48:33;;;;;;;14.40;11.95;;;23.20;99.90;;;;;;4995138;28;20459;-87
2022/07/25 06:51:06;;;;;;;16.92;12.02;;;23.30;99.90;;;;;;4985672;28;20045;-88
2022/07/25 06:53:37;;;;;;;13.82;12.15;;;23.30;99.90;;;;;;4997506;28;20046;-88
2022/07/25 06:56:03;;;;;;;17.27;12.38;;;23.40;99.90;;;;;;4974668;28;20140;-88
2022/07/25 06:58:32;;;;;;;16.30;11.32;;;23.50;99.90;;;;;;5005379;28;20026;-89
2022/07/25 07:01:05;;;;;;;14.75;11.05;;;23.60;99.90;;;;;;4988473;28;20087;-89
2022/07/25 07:03:36;;;;;;;15.13;11.68;;;23.70;99.90;;;;;;4991414;28;20057;-88
2022/07/25 07:06:04;;;;;;;13.82;10.75;;;23.80;99.90;;;;;;4991654;28;20030;-88
2022/07/25 07:08:29;;;;;;;16.50;12.68;;;23.90;99.90;;;;;;5005662;28;20030;-89
2022/07/25 07:11:03;;;;;;;19.33;11.80;;;24.00;99.90;;;;;;4990840;28;20026;-88
2022/07/25 07:13:29;;;;;;;16.77;11.80;;;24.10;99.90;;;;;;5001039;28;20026;-90
2022/07/25 07:15:55;;;;;;;15.32;11.43;;;24.10;99.90;;;;;;4980197;28;20048;-88
2022/07/25 07:18:20;;;;;;;20.13;11.23;;;24.20;99.90;;;;;;4995061;28;20057;-89
2022/07/25 07:20:46;;;;;;;14.30;11.90;;;24.20;99.90;;;;;;5001915;28;20030;-88
2022/07/25 07:23:13;;;;;;;13.25;11.73;;;24.40;99.90;;;;;;5005331;28;20030;-88
2022/07/25 07:25:47;;;;;;;13.98;11.13;;;24.40;99.90;;;;;;5001000;28;20032;-89
2022/07/25 07:28:14;;;;;;;15.00;11.02;;;24.50;99.90;;;;;;5004852;28;20128;-89
2022/07/25 07:30:42;;;;;;;12.70;11.20;;;24.60;99.90;;;;;;4998110;28;20036;-88
2022/07/25 07:33:07;;;;;;;14.02;11.45;;;24.70;99.90;;;;;;4995852;28;20042;-89
2022/07/25 07:35:36;;;;;;;16.08;11.10;;;24.70;99.90;;;;;;5012993;28;20052;-88
2022/07/25 07:38:43;;;;;;;12.18;10.88;;;24.80;99.90;;;;;;5013638;28;20033;-90
2022/07/25 07:41:12;;;;;;;15.05;11.85;;;24.80;99.90;;;;;;4996625;28;20042;-89
2022/07/25 07:43:37;;;;;;;13.90;11.68;;;24.80;99.90;;;;;;5011872;28;20443;-88
2022/07/25 07:46:03;;;;;;;12.57;11.27;;;24.90;99.90;;;;;;5014615;28;20026;-88
2022/07/25 07:48:32;;;;;;;13.93;11.13;;;24.80;99.90;;;;;;4996781;28;20029;-90
2022/07/25 07:50:59;;;;;;;13.18;10.95;;;24.90;99.90;;;;;;5013656;28;20045;-90
2022/07/25 07:56:13;;;;;;;14.73;10.38;;;25.10;99.90;;;;;;5016180;28;20069;-90
2022/07/25 07:58:38;;;;;;;15.98;10.27;;;25.70;99.90;;;;;;5000818;28;20033;-89
2022/07/25 08:01:05;;;;;;;11.40;9.63;;;27.00;99.90;;;;;;5000398;28;20061;-88
2022/07/25 08:03:31;;;;;;;13.00;9.15;;;28.90;99.90;;;;;;4999066;28;20376;-89
2022/07/25 08:05:57;;;;;;;17.35;9.48;;;30.80;99.90;;;;;;4999858;28;20491;-91
2022/07/25 08:08:28;;;;;;;10.68;8.07;;;32.20;98.30;;;;;;5017203;28;20096;-89
2022/07/25 08:10:53;;;;;;;;;;;33.00;94.80;;;;;;5011850;28;20037;-91
2022/07/25 08:13:25;;;;;;;9.70;8.02;;;33.70;92.10;;;;;;5014167;28;20012;-90
2022/07/25 08:15:56;;;;;;;12.15;8.55;;;34.30;90.00;;;;;;5003374;28;20040;-91
2022/07/25 08:18:34;;;;;;;12.02;8.70;;;34.10;85.70;;;;;;5018846;28;20183;-90
2022/07/25 08:21:02;;;;;;;11.93;9.13;;;33.80;84.10;;;;;;5017339;28;20038;-91
2022/07/25 08:23:30;;;;;;;10.40;9.30;;;33.50;83.90;;;;;;5014915;28;20049;-89
2022/07/25 08:26:04;;;;;;;10.98;9.52;;;33.80;82.40;;;;;;5001307;28;20028;-90
2022/07/25 08:28:30;;;;;;;10.52;8.88;;;34.00;80.90;;;;;;5015656;28;20125;-90
2022/07/25 08:30:57;;;;;;;12.43;8.45;;;34.00;81.50;;;;;;5016307;28;20022;-89
2022/07/25 08:33:24;;;;;;;9.70;8.80;;;34.10;81.50;;;;;;4998989;28;20088;-91
2022/07/25 08:35:52;;;;;;;8.50;7.70;;;34.10;80.50;;;;;;4999329;28;20033;-89
2022/07/25 08:38:28;;;;;;;9.90;8.70;;;34.70;80.40;;;;;;5015470;28;20030;-88
2022/07/25 08:40:55;;;;;;;10.93;9.20;;;35.10;79.00;;;;;;5015646;28;20137;-87
2022/07/25 08:43:22;;;;;;;9.30;8.40;;;35.10;76.50;;;;;;4998926;28;20034;-89
2022/07/25 08:45:50;;;;;;;13.45;8.52;;;34.40;78.70;;;;;;5000020;28;20032;-89
2022/07/25 08:48:21;;;;;;;9.55;8.57;;;34.80;78.40;;;;;;5014922;28;20030;-90
2022/07/25 08:50:48;;;;;;;9.02;8.13;;;35.40;76.30;;;;;;5023732;28;20049;-89
2022/07/25 08:53:16;;;;;;;13.27;9.07;;;34.90;75.10;;;;;;5017689;28;20388;-89
2022/07/25 08:55:44;;;;;;;11.00;9.38;;;34.60;76.10;;;;;;4999608;28;20042;-87
2022/07/25 08:58:18;;;;;;;10.40;9.10;;;34.20;76.40;;;;;;4999448;28;20034;-91
2022/07/25 09:00:44;;;;;;;12.52;9.77;;;33.60;77.60;;;;;;5014039;28;20030;-91
2022/07/25 09:03:10;;;;;;;10.32;9.23;;;33.00;77.80;;;;;;4991479;28;20025;-87
2022/07/25 09:05:37;;;;;;;12.68;9.80;;;32.60;78.30;;;;;;5015395;28;20037;-89
2022/07/25 09:08:16;;;;;;;10.73;8.88;;;32.40;79.40;;;;;;5014440;28;20596;-87
2022/07/25 09:10:51;;;;;;;11.25;9.55;;;32.10;80.10;;;;;;5015227;28;20080;-90
2022/07/25 09:13:18;;;;;;;13.50;9.93;;;32.50;80.60;;;;;;4999933;28;20440;-89
2022/07/25 09:15:59;;;;;;;12.27;9.98;;;32.50;79.50;;;;;;5015240;28;20053;-90
2022/07/25 09:18:26;;;;;;;15.32;10.23;;;32.90;79.60;;;;;;4997670;28;20120;-89
2022/07/25 09:20:52;;;;;;;10.10;9.07;;;33.50;76.60;;;;;;5005416;28;20269;-88
2022/07/25 09:23:33;;;;;;;13.57;10.00;;;32.90;78.20;;;;;;5011983;28;20101;-89
2022/07/25 09:26:09;;;;;;;;;;;32.70;77.90;;;;;;5032197;28;20044;-90
2022/07/25 09:28:48;;;;;;;11.52;10.35;;;32.60;79.40;;;;;;5030876;28;19917;-89
2022/07/25 09:31:15;;;;;;;13.43;10.07;;;33.10;79.30;;;;;;5013366;28;20505;-88
2022/07/25 09:34:40;;;;;;;12.05;9.40;;;33.40;76.90;;;;;;5029062;28;20030;-92
2022/07/25 09:37:14;;;;;;;18.20;9.77;;;33.00;77.10;;;;;;4983065;28;20042;-89
2022/07/25 09:39:58;;;;;;;11.65;9.63;;;33.30;78.20;;;;;;4988824;28;20049;-87
2022/07/25 09:42:24;;;;;;;10.65;9.43;;;34.00;75.10;;;;;;5004432;28;20041;-89
2022/07/25 09:45:11;;;;;;;10.60;9.10;;;33.90;76.50;;;;;;5031420;28;20061;-90
2022/07/25 09:47:50;;;;;;;10.57;9.43;;;35.00;73.20;;;;;;5030688;28;20034;-88
2022/07/25 09:50:16;;;;;;;10.68;9.40;;;34.90;72.30;;;;;;5002568;28;20029;-89
2022/07/25 09:52:45;;;;;;;10.02;9.02;;;34.90;74.10;;;;;;5011203;28;20449;-88
2022/07/25 09:55:12;;;;;;;10.45;9.35;;;34.90;72.50;;;;;;5016413;28;20091;-89
2022/07/25 09:57:39;;;;;;;10.27;9.15;;;33.80;72.10;;;;;;5006681;28;20571;-89
2022/07/25 10:00:07;;;;;;;9.93;8.93;;;33.30;74.90;;;;;;4988760;28;20145;-89
2022/07/25 10:03:27;;;;;;;12.60;9.75;;;33.50;73.80;;;;;;5001759;28;20504;-89
2022/07/25 10:06:19;;;;;;;9.95;8.95;;;33.80;74.90;;;;;;4936461;28;20078;-88
2022/07/25 10:08:46;;;;;;;15.98;14.48;;;33.50;72.40;;;;;;4987668;28;20089;-89
2022/07/25 10:11:29;;;;;;;11.55;9.93;;;32.90;76.30;;;;;;4989697;28;20041;-89
2022/07/25 10:13:55;;;;;;;15.32;9.98;;;32.70;78.50;;;;;;5010555;28;20113;-91
2022/07/25 10:16:25;;;;;;;12.25;9.50;;;32.60;75.60;;;;;;5008007;28;20766;-90
2022/07/25 10:18:55;;;;;;;11.05;9.48;;;32.50;77.40;;;;;;4989580;28;20040;-88
2022/07/25 10:21:29;;;;;;;14.15;10.40;;;32.30;77.20;;;;;;5006844;28;20033;-90
2022/07/25 10:24:04;;;;;;;11.18;9.90;;;32.00;78.80;;;;;;5012773;28;20037;-91
2022/07/25 10:26:30;;;;;;;12.82;9.88;;;31.90;78.30;;;;;;4997384;28;20033;-92
2022/07/25 10:28:57;;;;;;;13.73;10.15;;;32.00;80.50;;;;;;4996510;28;20097;-90
2022/07/25 10:31:37;;;;;;;11.13;9.07;;;32.10;77.30;;;;;;4996257;28;20061;-91
2022/07/25 10:34:05;;;;;;;12.18;10.05;;;32.40;78.80;;;;;;4996493;28;20038;-89
2022/07/25 10:36:46;;;;;;;9.82;8.85;;;33.10;77.70;;;;;;5016762;28;20041;-89
2022/07/25 10:39:15;;;;;;;15.85;9.48;;;33.30;75.80;;;;;;5023170;28;20112;-89
2022/07/25 10:42:01;;;;;;;10.27;9.00;;;33.70;75.60;;;;;;5005791;28;20084;-91
2022/07/25 10:44:40;;;;;;;9.80;8.82;;;34.10;73.90;;;;;;5033058;28;20072;-90
2022/07/25 10:47:17;;;;;;;9.95;9.02;;;33.50;73.00;;;;;;5018613;28;20038;-90
2022/07/25 10:49:47;;;;;;;9.75;8.68;;;34.00;73.00;;;;;;5015208;28;20042;-87
2022/07/25 10:52:17;;;;;;;12.25;8.98;;;34.50;71.40;;;;;;5015196;28;20052;-89
2022/07/25 10:54:58;;;;;;;13.15;9.57;;;34.80;70.80;;;;;;5013004;28;20060;-88
2022/07/25 10:57:24;;;;;;;9.40;8.45;;;34.50;69.60;;;;;;5013685;28;20033;-89
2022/07/25 10:59:50;;;;;;;9.90;8.80;;;34.80;68.40;;;;;;5012520;28;20030;-89
2022/07/25 11:02:16;;;;;;;9.95;8.95;;;35.10;68.60;;;;;;5013312;28;20041;-90
2022/07/25 11:05:06;;;;;;;;;;;;;;;;;;;;;
2022/07/25 11:08:07;;;;;;;10.32;9.25;;;34.40;69.70;;;;;;5034612;28;20045;-89
2022/07/25 11:10:32;;;;;;;14.43;9.27;;;33.80;70.20;;;;;;5047519;22;20048;-91
2022/07/25 11:12:58;;;;;;;10.18;8.27;;;33.90;72.50;;;;;;5016235;28;20025;-90
2022/07/25 11:15:24;;;;;;;10.95;8.65;;;34.50;70.80;;;;;;5015843;28;20029;-92
2022/07/25 11:17:51;;;;;;;12.60;8.27;;;34.90;67.00;;;;;;5016220;28;20041;-90
2022/07/25 11:20:18;;;;;;;9.05;7.45;;;34.60;67.30;;;;;;5032692;28;20037;-90
2022/07/25 11:22:54;;;;;;;10.77;8.77;;;34.70;68.20;;;;;;5016300;28;20075;-91
2022/07/25 11:25:22;;;;;;;12.32;7.97;;;35.10;66.00;;;;;;5018740;28;20443;-92
2022/07/25 11:27:58;;;;;;;9.32;8.43;;;35.20;66.80;;;;;;5018660;28;20092;-92
2022/07/25 11:31:20;;;;;;;11.43;8.60;;;35.00;65.50;;;;;;5019851;28;20025;-91
2022/07/25 11:33:48;;;;;;;13.20;7.65;;;35.50;65.60;;;;;;5035510;28;20029;-91
2022/07/25 11:36:14;;;;;;;12.15;7.80;;;35.40;64.70;;;;;;5021402;28;20072;-90
2022/07/25 11:38:41;;;;;;;8.10;7.40;;;34.80;63.50;;;;;;5020824;28;20077;-89
2022/07/25 11:41:07;;;;;;;7.75;6.95;;;33.80;65.70;;;;;;5022352;28;20431;-91
2022/07/25 11:43:33;;;;;;;9.40;7.40;;;33.80;65.30;;;;;;5021770;28;20492;-90
2022/07/25 11:46:05;;;;;;;12.60;7.93;;;33.80;64.40;;;;;;5039276;28;20033;-91
2022/07/25 11:48:39;;;;;;;9.70;6.90;;;33.70;64.20;;;;;;5021401;28;20057;-92
2022/07/25 11:51:18;;;;;;;8.07;7.22;;;34.10;62.60;;;;;;5035535;28;20022;-90
2022/07/25 11:53:46;;;;;;;9.02;6.90;;;34.00;64.00;;;;;;5016512;28;20037;-91
2022/07/25 11:56:21;;;;;;;8.73;6.88;;;34.20;63.30;;;;;;5017394;28;20034;-90
2022/07/25 11:58:57;;;;;;;10.88;6.95;;;34.60;63.30;;;;;;5035968;28;20033;-90
2022/07/25 12:01:24;;;;;;;9.70;6.60;;;35.10;60.70;;;;;;5035467;28;20029;-90
2022/07/25 12:03:50;;;;;;;9.02;6.35;;;35.00;59.60;;;;;;5018348;28;20132;-90
2022/07/25 12:06:16;;;;;;;6.90;5.93;;;34.40;59.50;;;;;;5034916;28;20065;-89
2022/07/25 12:08:42;;;;;;;10.55;7.45;;;33.90;59.60;;;;;;5019573;28;20041;-90
2022/07/25 12:11:20;;;;;;;11.25;7.10;;;33.20;60.70;;;;;;5017845;28;20473;-91
2022/07/25 12:13:46;;;;;;;7.57;6.45;;;32.50;62.80;;;;;;5031683;28;20042;-90
2022/07/25 12:16:12;;;;;;;9.90;6.97;;;32.30;63.50;;;;;;5015811;28;20075;-89
2022/07/25 12:18:38;;;;;;;8.07;6.53;;;31.80;63.40;;;;;;5015334;28;20397;-89
2022/07/25 12:21:04;;;;;;;11.57;7.18;;;31.70;64.40;;;;;;5031921;28;20026;-89
2022/07/25 12:23:30;;;;;;;8.60;7.32;;;32.00;63.80;;;;;;5031749;28;20069;-91
2022/07/25 12:25:55;;;;;;;17.17;7.68;;;32.30;64.30;;;;;;5015379;28;20030;-91
2022/07/25 12:28:21;;;;;;;13.07;6.82;;;32.50;64.30;;;;;;5014964;28;20675;-91
2022/07/25 12:30:48;;;;;;;13.43;7.50;;;32.40;64.30;;;;;;5031936;28;20059;-89
2022/07/25 12:33:14;;;;;;;8.98;7.25;;;32.90;64.90;;;;;;5031687;28;20048;-90
2022/07/25 12:35:41;;;;;;;7.45;6.65;;;33.70;63.70;;;;;;5031542;28;20044;-90
2022/07/25 12:38:07;;;;;;;7.95;7.00;;;33.80;62.50;;;;;;5034126;28;20133;-89
2022/07/25 12:40:33;;;;;;;9.98;7.50;;;33.20;63.80;;;;;;5035304;28;20061;-89
2022/07/25 12:42:59;;;;;;;17.55;7.85;;;32.90;63.70;;;;;;5019046;28;20076;-89
2022/07/25 12:45:26;;;;;;;10.50;7.55;;;32.80;63.40;;;;;;5018808;28;20087;-90
2022/07/25 12:47:51;;;;;;;8.65;7.60;;;32.70;64.40;;;;;;5018745;28;20127;-89
2022/07/25 12:50:17;;;;;;;9.30;8.32;;;32.80;65.70;;;;;;5018761;28;20456;-90
2022/07/25 12:52:44;;;;;;;10.57;7.32;;;33.10;64.70;;;;;;5018222;28;20132;-90